sensor_id;sensor_type;location;lat;lon;timestamp;temperature;humidity
19522;DHT22;9905;52.126;5.596;2024-02-21T00:01:22;9.70;99.90
19522;DHT22;9905;52.126;5.596;2024-02-21T00:03:49;9.70;99.90
19522;DHT22;9905;52.126;5.596;2024-02-21T00:06:16;9.70;99.90
19522;DHT22;9905;52.126;5.596;2024-02-21T00:08:44;9.70;99.90
19522;DHT22;9905;52.126;5.596;2024-02-21T00:11:10;9.70;99.90
19522;DHT22;9905;52.126;5.596;2024-02-21T00:13:37;9.70;99.90
19522;DHT22;9905;52.126;5.596;2024-02-21T00:16:04;9.70;99.90
19522;DHT22;9905;52.126;5.596;2024-02-21T00:18:31;9.70;99.90
19522;DHT22;9905;52.126;5.596;2024-02-21T00:20:58;9.70;99.90
19522;DHT22;9905;52.126;5.596;2024-02-21T00:23:27;9.70;99.90
19522;DHT22;9905;52.126;5.596;2024-02-21T00:25:55;9.70;99.90
19522;DHT22;9905;52.126;5.596;2024-02-21T00:28:22;9.70;99.90
19522;DHT22;9905;52.126;5.596;2024-02-21T00:30:48;9.60;99.90
19522;DHT22;9905;52.126;5.596;2024-02-21T00:33:16;9.60;99.90
19522;DHT22;9905;52.126;5.596;2024-02-21T00:35:43;9.60;99.90
19522;DHT22;9905;52.126;5.596;2024-02-21T00:38:10;9.70;99.90
19522;DHT22;9905;52.126;5.596;2024-02-21T00:40:37;9.60;99.90
19522;DHT22;9905;52.126;5.596;2024-02-21T00:43:05;9.60;99.90
19522;DHT22;9905;52.126;5.596;2024-02-21T00:45:31;9.70;99.90
19522;DHT22;9905;52.126;5.596;2024-02-21T00:47:58;9.60;99.90
19522;DHT22;9905;52.126;5.596;2024-02-21T00:50:25;9.70;99.90
19522;DHT22;9905;52.126;5.596;2024-02-21T00:52:52;9.60;99.90
19522;DHT22;9905;52.126;5.596;2024-02-21T00:55:19;9.60;99.90
19522;DHT22;9905;52.126;5.596;2024-02-21T00:57:45;9.60;99.90
19522;DHT22;9905;52.126;5.596;2024-02-21T01:00:14;9.60;99.90
19522;DHT22;9905;52.126;5.596;2024-02-21T01:02:41;9.60;99.90
19522;DHT22;9905;52.126;5.596;2024-02-21T01:05:08;9.60;99.90
19522;DHT22;9905;52.126;5.596;2024-02-21T01:07:35;9.70;99.90
19522;DHT22;9905;52.126;5.596;2024-02-21T01:10:02;9.60;99.90
19522;DHT22;9905;52.126;5.596;2024-02-21T01:12:28;9.60;99.90
19522;DHT22;9905;52.126;5.596;2024-02-21T01:14:55;9.60;99.90
19522;DHT22;9905;52.126;5.596;2024-02-21T01:17:23;9.70;99.90
19522;DHT22;9905;52.126;5.596;2024-02-21T01:19:50;9.60;99.90
19522;DHT22;9905;52.126;5.596;2024-02-21T01:22:16;9.50;99.90
19522;DHT22;9905;52.126;5.596;2024-02-21T01:24:43;9.60;99.90
19522;DHT22;9905;52.126;5.596;2024-02-21T01:27:10;9.60;99.90
19522;DHT22;9905;52.126;5.596;2024-02-21T01:29:37;9.60;99.90
19522;DHT22;9905;52.126;5.596;2024-02-21T01:32:04;9.60;99.90
19522;DHT22;9905;52.126;5.596;2024-02-21T01:34:32;9.60;99.90
19522;DHT22;9905;52.126;5.596;2024-02-21T01:36:59;9.60;99.90
19522;DHT22;9905;52.126;5.596;2024-02-21T01:39:30;9.60;99.90
19522;DHT22;9905;52.126;5.596;2024-02-21T01:41:56;9.60;99.90
19522;DHT22;9905;52.126;5.596;2024-02-21T01:44:23;9.60;99.90
19522;DHT22;9905;52.126;5.596;2024-02-21T01:46:50;9.60;99.90
19522;DHT22;9905;52.126;5.596;2024-02-21T01:49:18;9.60;99.90
19522;DHT22;9905;52.126;5.596;2024-02-21T01:51:46;9.50;99.90
19522;DHT22;9905;52.126;5.596;2024-02-21T01:54:14;9.50;99.90
19522;DHT22;9905;52.126;5.596;2024-02-21T01:56:41;9.60;99.90
19522;DHT22;9905;52.126;5.596;2024-02-21T01:59:08;9.60;99.90
19522;DHT22;9905;52.126;5.596;2024-02-21T02:01:35;9.50;99.90
19522;DHT22;9905;52.126;5.596;2024-02-21T02:04:02;9.50;99.90
19522;DHT22;9905;52.126;5.596;2024-02-21T02:06:30;9.50;99.90
19522;DHT22;9905;52.126;5.596;2024-02-21T02:08:58;9.50;99.90
19522;DHT22;9905;52.126;5.596;2024-02-21T02:11:25;9.60;99.90
19522;DHT22;9905;52.126;5.596;2024-02-21T02:13:52;9.50;99.90
19522;DHT22;9905;52.126;5.596;2024-02-21T02:16:20;9.60;99.90
19522;DHT22;9905;52.126;5.596;2024-02-21T02:18:46;9.50;99.90
19522;DHT22;9905;52.126;5.596;2024-02-21T02:21:22;9.50;99.90
19522;DHT22;9905;52.126;5.596;2024-02-21T02:23:51;9.50;99.90
19522;DHT22;9905;52.126;5.596;2024-02-21T02:26:18;9.50;99.90
19522;DHT22;9905;52.126;5.596;2024-02-21T02:28:45;9.50;99.90
19522;DHT22;9905;52.126;5.596;2024-02-21T02:31:12;9.50;99.90
19522;DHT22;9905;52.126;5.596;2024-02-21T02:33:39;9.50;99.90
19522;DHT22;9905;52.126;5.596;2024-02-21T02:36:06;9.50;99.90
19522;DHT22;9905;52.126;5.596;2024-02-21T02:38:32;9.60;99.90
19522;DHT22;9905;52.126;5.596;2024-02-21T02:41:00;9.50;99.90
19522;DHT22;9905;52.126;5.596;2024-02-21T02:43:27;9.50;99.90
19522;DHT22;9905;52.126;5.596;2024-02-21T02:45:54;9.50;99.90
19522;DHT22;9905;52.126;5.596;2024-02-21T02:48:21;9.50;99.90
19522;DHT22;9905;52.126;5.596;2024-02-21T02:50:48;9.50;99.90
19522;DHT22;9905;52.126;5.596;2024-02-21T02:53:15;9.50;99.90
19522;DHT22;9905;52.126;5.596;2024-02-21T02:55:42;9.50;99.90
19522;DHT22;9905;52.126;5.596;2024-02-21T02:58:10;9.50;99.90
19522;DHT22;9905;52.126;5.596;2024-02-21T03:00:37;9.50;99.90
19522;DHT22;9905;52.126;5.596;2024-02-21T03:03:04;9.50;99.90
19522;DHT22;9905;52.126;5.596;2024-02-21T03:05:31;9.50;99.90
19522;DHT22;9905;52.126;5.596;2024-02-21T03:07:58;9.50;99.90
19522;DHT22;9905;52.126;5.596;2024-02-21T03:10:25;9.50;99.90
19522;DHT22;9905;52.126;5.596;2024-02-21T03:12:52;9.50;99.90
19522;DHT22;9905;52.126;5.596;2024-02-21T03:15:20;9.50;99.90
19522;DHT22;9905;52.126;5.596;2024-02-21T03:17:47;9.50;99.90
19522;DHT22;9905;52.126;5.596;2024-02-21T03:20:14;9.50;99.90
19522;DHT22;9905;52.126;5.596;2024-02-21T03:22:41;9.50;99.90
19522;DHT22;9905;52.126;5.596;2024-02-21T03:25:08;9.50;99.90
19522;DHT22;9905;52.126;5.596;2024-02-21T03:27:35;9.50;99.90
19522;DHT22;9905;52.126;5.596;2024-02-21T03:30:02;9.50;99.90
19522;DHT22;9905;52.126;5.596;2024-02-21T03:32:31;9.50;99.90
19522;DHT22;9905;52.126;5.596;2024-02-21T03:34:58;9.50;99.90
19522;DHT22;9905;52.126;5.596;2024-02-21T03:37:24;9.50;99.90
19522;DHT22;9905;52.126;5.596;2024-02-21T03:39:51;9.50;99.90
19522;DHT22;9905;52.126;5.596;2024-02-21T03:42:18;9.50;99.90
19522;DHT22;9905;52.126;5.596;2024-02-21T03:44:44;9.50;99.90
19522;DHT22;9905;52.126;5.596;2024-02-21T03:47:11;9.50;99.90
19522;DHT22;9905;52.126;5.596;2024-02-21T03:49:39;9.50;99.90
19522;DHT22;9905;52.126;5.596;2024-02-21T03:52:07;9.40;99.90
19522;DHT22;9905;52.126;5.596;2024-02-21T03:54:34;9.40;99.90
19522;DHT22;9905;52.126;5.596;2024-02-21T03:57:01;9.50;99.90
19522;DHT22;9905;52.126;5.596;2024-02-21T03:59:28;9.50;99.90
19522;DHT22;9905;52.126;5.596;2024-02-21T04:01:55;9.40;99.90
19522;DHT22;9905;52.126;5.596;2024-02-21T04:04:22;9.50;99.90
19522;DHT22;9905;52.126;5.596;2024-02-21T04:06:51;9.50;99.90
19522;DHT22;9905;52.126;5.596;2024-02-21T04:09:18;9.50;99.90
19522;DHT22;9905;52.126;5.596;2024-02-21T04:11:45;9.40;99.90
19522;DHT22;9905;52.126;5.596;2024-02-21T04:14:12;9.40;99.90
19522;DHT22;9905;52.126;5.596;2024-02-21T04:16:38;9.40;99.90
19522;DHT22;9905;52.126;5.596;2024-02-21T04:19:05;9.40;99.90
19522;DHT22;9905;52.126;5.596;2024-02-21T04:21:32;9.40;99.90
19522;DHT22;9905;52.126;5.596;2024-02-21T04:24:00;9.40;99.90
19522;DHT22;9905;52.126;5.596;2024-02-21T04:26:27;9.40;99.90
19522;DHT22;9905;52.126;5.596;2024-02-21T04:28:54;9.40;99.90
19522;DHT22;9905;52.126;5.596;2024-02-21T04:31:21;9.40;99.90
19522;DHT22;9905;52.126;5.596;2024-02-21T04:33:47;9.40;99.90
19522;DHT22;9905;52.126;5.596;2024-02-21T04:36:14;9.40;99.90
19522;DHT22;9905;52.126;5.596;2024-02-21T04:38:42;9.40;99.90
19522;DHT22;9905;52.126;5.596;2024-02-21T04:41:11;9.40;99.90
19522;DHT22;9905;52.126;5.596;2024-02-21T04:43:37;9.40;99.90
19522;DHT22;9905;52.126;5.596;2024-02-21T04:46:04;9.40;99.90
19522;DHT22;9905;52.126;5.596;2024-02-21T04:48:31;9.40;99.90
19522;DHT22;9905;52.126;5.596;2024-02-21T04:50:59;9.40;99.90
19522;DHT22;9905;52.126;5.596;2024-02-21T04:53:25;9.40;99.90
19522;DHT22;9905;52.126;5.596;2024-02-21T04:55:52;9.30;99.90
19522;DHT22;9905;52.126;5.596;2024-02-21T04:58:20;9.30;99.90
19522;DHT22;9905;52.126;5.596;2024-02-21T05:00:47;9.30;99.90
19522;DHT22;9905;52.126;5.596;2024-02-21T05:03:14;9.30;99.90
19522;DHT22;9905;52.126;5.596;2024-02-21T05:05:41;9.30;99.90
19522;DHT22;9905;52.126;5.596;2024-02-21T05:08:09;9.30;99.90
19522;DHT22;9905;52.126;5.596;2024-02-21T05:10:37;9.30;99.90
19522;DHT22;9905;52.126;5.596;2024-02-21T05:13:03;9.30;99.90
19522;DHT22;9905;52.126;5.596;2024-02-21T05:15:31;9.30;99.90
19522;DHT22;9905;52.126;5.596;2024-02-21T05:17:59;9.30;99.90
19522;DHT22;9905;52.126;5.596;2024-02-21T05:20:26;9.30;99.90
19522;DHT22;9905;52.126;5.596;2024-02-21T05:22:53;9.30;99.90
19522;DHT22;9905;52.126;5.596;2024-02-21T05:25:19;9.30;99.90
19522;DHT22;9905;52.126;5.596;2024-02-21T05:27:46;9.30;99.90
19522;DHT22;9905;52.126;5.596;2024-02-21T05:30:14;9.30;99.90
19522;DHT22;9905;52.126;5.596;2024-02-21T05:32:42;9.30;99.90
19522;DHT22;9905;52.126;5.596;2024-02-21T05:35:08;9.30;99.90
19522;DHT22;9905;52.126;5.596;2024-02-21T05:37:35;9.30;99.90
19522;DHT22;9905;52.126;5.596;2024-02-21T05:40:02;9.30;99.90
19522;DHT22;9905;52.126;5.596;2024-02-21T05:42:29;9.30;99.90
19522;DHT22;9905;52.126;5.596;2024-02-21T05:44:56;9.20;99.90
19522;DHT22;9905;52.126;5.596;2024-02-21T05:47:22;9.30;99.90
19522;DHT22;9905;52.126;5.596;2024-02-21T05:49:53;9.20;99.90
19522;DHT22;9905;52.126;5.596;2024-02-21T05:52:20;9.20;99.90
19522;DHT22;9905;52.126;5.596;2024-02-21T05:54:47;9.20;99.90
19522;DHT22;9905;52.126;5.596;2024-02-21T05:57:17;9.20;99.90
19522;DHT22;9905;52.126;5.596;2024-02-21T05:59:43;9.20;99.90
19522;DHT22;9905;52.126;5.596;2024-02-21T06:02:10;9.20;99.90
19522;DHT22;9905;52.126;5.596;2024-02-21T06:04:37;9.20;99.90
19522;DHT22;9905;52.126;5.596;2024-02-21T06:07:06;9.20;99.90
19522;DHT22;9905;52.126;5.596;2024-02-21T06:09:33;9.20;99.90
19522;DHT22;9905;52.126;5.596;2024-02-21T06:11:59;9.20;99.90
19522;DHT22;9905;52.126;5.596;2024-02-21T06:14:26;9.10;99.90
19522;DHT22;9905;52.126;5.596;2024-02-21T06:16:53;9.10;99.90
19522;DHT22;9905;52.126;5.596;2024-02-21T06:19:19;9.10;99.90
19522;DHT22;9905;52.126;5.596;2024-02-21T06:21:46;9.10;99.90
19522;DHT22;9905;52.126;5.596;2024-02-21T06:24:14;9.10;99.90
19522;DHT22;9905;52.126;5.596;2024-02-21T06:26:42;9.10;99.90
19522;DHT22;9905;52.126;5.596;2024-02-21T06:29:10;9.00;99.90
19522;DHT22;9905;52.126;5.596;2024-02-21T06:31:39;9.10;99.90
19522;DHT22;9905;52.126;5.596;2024-02-21T06:34:06;9.00;99.90
19522;DHT22;9905;52.126;5.596;2024-02-21T06:36:33;9.00;99.90
19522;DHT22;9905;52.126;5.596;2024-02-21T06:39:00;9.00;99.90
19522;DHT22;9905;52.126;5.596;2024-02-21T06:41:28;9.10;99.90
19522;DHT22;9905;52.126;5.596;2024-02-21T06:43:56;9.00;99.90
19522;DHT22;9905;52.126;5.596;2024-02-21T06:46:23;9.00;99.90
19522;DHT22;9905;52.126;5.596;2024-02-21T06:48:51;9.00;99.90
19522;DHT22;9905;52.126;5.596;2024-02-21T06:51:17;9.00;99.90
19522;DHT22;9905;52.126;5.596;2024-02-21T06:53:44;9.00;99.90
19522;DHT22;9905;52.126;5.596;2024-02-21T06:56:11;9.00;99.90
19522;DHT22;9905;52.126;5.596;2024-02-21T06:58:39;9.00;99.90
19522;DHT22;9905;52.126;5.596;2024-02-21T07:01:06;9.00;99.90
19522;DHT22;9905;52.126;5.596;2024-02-21T07:03:33;9.00;99.90
19522;DHT22;9905;52.126;5.596;2024-02-21T07:06:00;9.00;99.90
19522;DHT22;9905;52.126;5.596;2024-02-21T07:08:27;9.00;99.90
19522;DHT22;9905;52.126;5.596;2024-02-21T07:10:53;9.00;99.90
19522;DHT22;9905;52.126;5.596;2024-02-21T07:13:20;9.00;99.90
19522;DHT22;9905;52.126;5.596;2024-02-21T07:15:49;9.00;99.90
19522;DHT22;9905;52.126;5.596;2024-02-21T07:18:16;9.00;99.90
19522;DHT22;9905;52.126;5.596;2024-02-21T07:20:43;9.00;99.90
19522;DHT22;9905;52.126;5.596;2024-02-21T07:23:10;9.00;99.90
19522;DHT22;9905;52.126;5.596;2024-02-21T07:25:37;9.00;99.90
19522;DHT22;9905;52.126;5.596;2024-02-21T07:28:04;9.00;99.90
19522;DHT22;9905;52.126;5.596;2024-02-21T07:30:31;9.00;99.90
19522;DHT22;9905;52.126;5.596;2024-02-21T07:32:59;9.00;99.90
19522;DHT22;9905;52.126;5.596;2024-02-21T07:35:26;9.00;99.90
19522;DHT22;9905;52.126;5.596;2024-02-21T07:37:52;9.00;99.90
19522;DHT22;9905;52.126;5.596;2024-02-21T07:40:19;9.00;99.90
19522;DHT22;9905;52.126;5.596;2024-02-21T07:42:46;9.00;99.90
19522;DHT22;9905;52.126;5.596;2024-02-21T07:45:13;9.10;99.90
19522;DHT22;9905;52.126;5.596;2024-02-21T07:47:39;9.10;99.90
19522;DHT22;9905;52.126;5.596;2024-02-21T07:50:08;9.10;99.90
19522;DHT22;9905;52.126;5.596;2024-02-21T07:52:35;9.10;99.90
19522;DHT22;9905;52.126;5.596;2024-02-21T07:55:02;9.10;99.90
19522;DHT22;9905;52.126;5.596;2024-02-21T07:57:29;9.10;99.90
19522;DHT22;9905;52.126;5.596;2024-02-21T07:59:56;9.10;99.90
19522;DHT22;9905;52.126;5.596;2024-02-21T08:02:22;9.10;99.90
19522;DHT22;9905;52.126;5.596;2024-02-21T08:04:49;9.20;99.90
19522;DHT22;9905;52.126;5.596;2024-02-21T08:07:17;9.10;99.90
19522;DHT22;9905;52.126;5.596;2024-02-21T08:09:44;9.20;99.90
19522;DHT22;9905;52.126;5.596;2024-02-21T08:12:11;9.20;99.90
19522;DHT22;9905;52.126;5.596;2024-02-21T08:14:37;9.20;99.90
19522;DHT22;9905;52.126;5.596;2024-02-21T08:17:04;9.20;99.90
19522;DHT22;9905;52.126;5.596;2024-02-21T08:19:31;9.30;99.90
19522;DHT22;9905;52.126;5.596;2024-02-21T08:21:57;9.30;99.90
19522;DHT22;9905;52.126;5.596;2024-02-21T08:24:25;9.30;99.90
19522;DHT22;9905;52.126;5.596;2024-02-21T08:26:52;9.30;99.90
19522;DHT22;9905;52.126;5.596;2024-02-21T08:29:19;9.30;99.90
19522;DHT22;9905;52.126;5.596;2024-02-21T08:31:46;9.30;99.90
19522;DHT22;9905;52.126;5.596;2024-02-21T08:34:12;9.30;99.90
19522;DHT22;9905;52.126;5.596;2024-02-21T08:36:39;9.30;99.90
19522;DHT22;9905;52.126;5.596;2024-02-21T08:39:06;9.40;99.90
19522;DHT22;9905;52.126;5.596;2024-02-21T08:41:36;9.40;99.90
19522;DHT22;9905;52.126;5.596;2024-02-21T08:44:04;9.40;99.90
19522;DHT22;9905;52.126;5.596;2024-02-21T08:46:30;9.40;99.90
19522;DHT22;9905;52.126;5.596;2024-02-21T08:48:57;9.40;99.90
19522;DHT22;9905;52.126;5.596;2024-02-21T08:51:24;9.50;99.90
19522;DHT22;9905;52.126;5.596;2024-02-21T08:53:52;9.40;99.90
19522;DHT22;9905;52.126;5.596;2024-02-21T08:56:19;9.40;99.90
19522;DHT22;9905;52.126;5.596;2024-02-21T08:58:47;9.40;99.90
19522;DHT22;9905;52.126;5.596;2024-02-21T09:01:14;9.40;99.90
19522;DHT22;9905;52.126;5.596;2024-02-21T09:03:41;9.40;99.90
19522;DHT22;9905;52.126;5.596;2024-02-21T09:06:08;9.50;99.90
19522;DHT22;9905;52.126;5.596;2024-02-21T09:08:36;9.50;99.90
19522;DHT22;9905;52.126;5.596;2024-02-21T09:11:05;9.50;99.90
19522;DHT22;9905;52.126;5.596;2024-02-21T09:13:33;9.50;99.90
19522;DHT22;9905;52.126;5.596;2024-02-21T09:16:01;9.50;99.90
19522;DHT22;9905;52.126;5.596;2024-02-21T09:18:28;9.50;99.90
19522;DHT22;9905;52.126;5.596;2024-02-21T09:20:55;9.50;99.90
19522;DHT22;9905;52.126;5.596;2024-02-21T09:23:24;9.50;99.90
19522;DHT22;9905;52.126;5.596;2024-02-21T09:25:50;9.60;99.90
19522;DHT22;9905;52.126;5.596;2024-02-21T09:28:17;9.60;99.90
19522;DHT22;9905;52.126;5.596;2024-02-21T09:30:44;9.60;99.90
19522;DHT22;9905;52.126;5.596;2024-02-21T09:33:12;9.60;99.90
19522;DHT22;9905;52.126;5.596;2024-02-21T09:35:40;9.60;99.90
19522;DHT22;9905;52.126;5.596;2024-02-21T09:38:06;9.60;99.90
19522;DHT22;9905;52.126;5.596;2024-02-21T09:40:33;9.70;99.90
19522;DHT22;9905;52.126;5.596;2024-02-21T09:43:04;9.70;99.90
19522;DHT22;9905;52.126;5.596;2024-02-21T09:45:33;9.70;99.90
19522;DHT22;9905;52.126;5.596;2024-02-21T09:48:23;9.70;99.90
19522;DHT22;9905;52.126;5.596;2024-02-21T09:50:53;9.70;99.90
19522;DHT22;9905;52.126;5.596;2024-02-21T09:53:22;9.70;99.90
19522;DHT22;9905;52.126;5.596;2024-02-21T09:55:50;9.70;99.90
19522;DHT22;9905;52.126;5.596;2024-02-21T09:58:18;9.70;99.90
19522;DHT22;9905;52.126;5.596;2024-02-21T10:00:45;9.70;99.90
19522;DHT22;9905;52.126;5.596;2024-02-21T10:03:12;9.80;99.90
19522;DHT22;9905;52.126;5.596;2024-02-21T10:05:47;9.80;99.90
19522;DHT22;9905;52.126;5.596;2024-02-21T10:08:14;9.80;99.90
19522;DHT22;9905;52.126;5.596;2024-02-21T10:10:42;9.80;99.90
19522;DHT22;9905;52.126;5.596;2024-02-21T10:13:10;9.80;99.90
19522;DHT22;9905;52.126;5.596;2024-02-21T10:15:37;9.80;99.90
19522;DHT22;9905;52.126;5.596;2024-02-21T10:18:04;9.80;99.90
19522;DHT22;9905;52.126;5.596;2024-02-21T10:20:32;9.90;99.90
19522;DHT22;9905;52.126;5.596;2024-02-21T10:23:04;9.90;99.90
19522;DHT22;9905;52.126;5.596;2024-02-21T10:25:33;9.90;99.90
19522;DHT22;9905;52.126;5.596;2024-02-21T10:28:01;10.00;99.90
19522;DHT22;9905;52.126;5.596;2024-02-21T10:30:28;10.00;99.90
19522;DHT22;9905;52.126;5.596;2024-02-21T10:32:55;10.00;99.90
19522;DHT22;9905;52.126;5.596;2024-02-21T10:35:26;10.00;99.90
19522;DHT22;9905;52.126;5.596;2024-02-21T10:37:54;10.00;99.90
19522;DHT22;9905;52.126;5.596;2024-02-21T10:40:23;10.10;99.90
19522;DHT22;9905;52.126;5.596;2024-02-21T10:42:55;10.10;99.90
19522;DHT22;9905;52.126;5.596;2024-02-21T10:45:28;10.20;99.90
19522;DHT22;9905;52.126;5.596;2024-02-21T10:47:56;10.20;99.90
19522;DHT22;9905;52.126;5.596;2024-02-21T10:50:31;10.20;99.90
19522;DHT22;9905;52.126;5.596;2024-02-21T10:53:07;10.20;99.90
19522;DHT22;9905;52.126;5.596;2024-02-21T10:55:40;10.10;99.90
19522;DHT22;9905;52.126;5.596;2024-02-21T10:58:09;10.20;99.90
19522;DHT22;9905;52.126;5.596;2024-02-21T11:00:37;10.10;99.90
19522;DHT22;9905;52.126;5.596;2024-02-21T11:03:05;10.10;99.90
19522;DHT22;9905;52.126;5.596;2024-02-21T11:05:33;10.00;99.90
19522;DHT22;9905;52.126;5.596;2024-02-21T11:08:00;10.10;99.90
19522;DHT22;9905;52.126;5.596;2024-02-21T11:10:27;10.10;99.90
19522;DHT22;9905;52.126;5.596;2024-02-21T11:13:05;10.10;99.90
19522;DHT22;9905;52.126;5.596;2024-02-21T11:15:32;10.20;99.90
19522;DHT22;9905;52.126;5.596;2024-02-21T11:17:59;10.10;99.90
19522;DHT22;9905;52.126;5.596;2024-02-21T11:20:32;10.10;99.90
19522;DHT22;9905;52.126;5.596;2024-02-21T11:23:00;10.00;99.90
19522;DHT22;9905;52.126;5.596;2024-02-21T11:25:28;10.00;99.90
19522;DHT22;9905;52.126;5.596;2024-02-21T11:28:01;10.00;99.90
19522;DHT22;9905;52.126;5.596;2024-02-21T11:30:30;10.00;99.90
19522;DHT22;9905;52.126;5.596;2024-02-21T11:33:03;9.90;99.90
19522;DHT22;9905;52.126;5.596;2024-02-21T11:35:32;9.90;99.90
19522;DHT22;9905;52.126;5.596;2024-02-21T11:38:10;9.90;99.90
19522;DHT22;9905;52.126;5.596;2024-02-21T11:40:40;9.90;99.90
19522;DHT22;9905;52.126;5.596;2024-02-21T11:43:08;9.80;99.90
19522;DHT22;9905;52.126;5.596;2024-02-21T11:45:35;9.80;99.90
19522;DHT22;9905;52.126;5.596;2024-02-21T11:48:02;9.80;99.90
19522;DHT22;9905;52.126;5.596;2024-02-21T11:50:31;9.90;99.90
19522;DHT22;9905;52.126;5.596;2024-02-21T11:52:57;9.80;99.90
19522;DHT22;9905;52.126;5.596;2024-02-21T11:55:24;9.80;99.90
19522;DHT22;9905;52.126;5.596;2024-02-21T11:57:51;9.80;99.90
19522;DHT22;9905;52.126;5.596;2024-02-21T12:00:21;9.80;99.90
19522;DHT22;9905;52.126;5.596;2024-02-21T12:02:50;9.80;99.90
19522;DHT22;9905;52.126;5.596;2024-02-21T12:05:18;9.80;99.90
19522;DHT22;9905;52.126;5.596;2024-02-21T12:07:46;9.80;99.90
19522;DHT22;9905;52.126;5.596;2024-02-21T12:10:13;9.90;99.90
19522;DHT22;9905;52.126;5.596;2024-02-21T12:12:40;9.90;99.90
19522;DHT22;9905;52.126;5.596;2024-02-21T12:15:08;9.90;99.90
19522;DHT22;9905;52.126;5.596;2024-02-21T12:17:36;10.00;99.90
19522;DHT22;9905;52.126;5.596;2024-02-21T12:20:04;10.10;99.90
19522;DHT22;9905;52.126;5.596;2024-02-21T12:22:35;10.20;99.90
19522;DHT22;9905;52.126;5.596;2024-02-21T12:25:03;10.20;99.90
19522;DHT22;9905;52.126;5.596;2024-02-21T12:27:33;10.30;99.90
19522;DHT22;9905;52.126;5.596;2024-02-21T12:30:00;10.40;99.90
19522;DHT22;9905;52.126;5.596;2024-02-21T12:32:26;10.50;99.90
19522;DHT22;9905;52.126;5.596;2024-02-21T12:34:54;10.50;99.90
19522;DHT22;9905;52.126;5.596;2024-02-21T12:37:22;10.60;99.90
19522;DHT22;9905;52.126;5.596;2024-02-21T12:39:50;10.60;99.90
19522;DHT22;9905;52.126;5.596;2024-02-21T12:42:17;10.50;99.90
19522;DHT22;9905;52.126;5.596;2024-02-21T12:44:43;10.50;99.90
19522;DHT22;9905;52.126;5.596;2024-02-21T12:47:11;10.50;99.90
19522;DHT22;9905;52.126;5.596;2024-02-21T12:49:38;10.50;99.90
19522;DHT22;9905;52.126;5.596;2024-02-21T12:52:06;10.50;99.90
19522;DHT22;9905;52.126;5.596;2024-02-21T12:54:33;10.60;99.90
19522;DHT22;9905;52.126;5.596;2024-02-21T12:57:00;10.50;99.90
19522;DHT22;9905;52.126;5.596;2024-02-21T12:59:28;10.50;99.90
19522;DHT22;9905;52.126;5.596;2024-02-21T13:01:55;10.60;99.90
19522;DHT22;9905;52.126;5.596;2024-02-21T13:04:22;10.70;99.90
19522;DHT22;9905;52.126;5.596;2024-02-21T13:06:49;10.60;99.90
19522;DHT22;9905;52.126;5.596;2024-02-21T13:09:17;10.70;99.90
19522;DHT22;9905;52.126;5.596;2024-02-21T13:11:45;10.70;99.90
19522;DHT22;9905;52.126;5.596;2024-02-21T13:14:12;10.70;99.90
19522;DHT22;9905;52.126;5.596;2024-02-21T13:16:39;10.70;99.90
19522;DHT22;9905;52.126;5.596;2024-02-21T13:19:06;10.70;99.90
19522;DHT22;9905;52.126;5.596;2024-02-21T13:21:33;10.70;99.90
19522;DHT22;9905;52.126;5.596;2024-02-21T13:24:00;10.80;99.90
19522;DHT22;9905;52.126;5.596;2024-02-21T13:26:28;10.70;99.90
19522;DHT22;9905;52.126;5.596;2024-02-21T13:28:55;10.70;99.90
19522;DHT22;9905;52.126;5.596;2024-02-21T13:31:22;10.70;99.90
19522;DHT22;9905;52.126;5.596;2024-02-21T13:33:50;10.70;99.90
19522;DHT22;9905;52.126;5.596;2024-02-21T13:36:17;10.70;99.90
19522;DHT22;9905;52.126;5.596;2024-02-21T13:38:44;10.70;99.90
19522;DHT22;9905;52.126;5.596;2024-02-21T13:41:11;10.70;99.90
19522;DHT22;9905;52.126;5.596;2024-02-21T13:43:39;10.70;99.90
19522;DHT22;9905;52.126;5.596;2024-02-21T13:46:06;10.70;99.90
19522;DHT22;9905;52.126;5.596;2024-02-21T13:48:35;10.60;99.90
19522;DHT22;9905;52.126;5.596;2024-02-21T13:51:02;10.70;99.90
19522;DHT22;9905;52.126;5.596;2024-02-21T13:53:29;10.60;99.90
19522;DHT22;9905;52.126;5.596;2024-02-21T13:55:55;10.60;99.90
19522;DHT22;9905;52.126;5.596;2024-02-21T13:58:22;10.70;99.90
19522;DHT22;9905;52.126;5.596;2024-02-21T14:00:51;10.70;99.90
19522;DHT22;9905;52.126;5.596;2024-02-21T14:03:19;10.70;99.90
19522;DHT22;9905;52.126;5.596;2024-02-21T14:05:46;10.70;99.90
19522;DHT22;9905;52.126;5.596;2024-02-21T14:08:13;10.70;99.90
19522;DHT22;9905;52.126;5.596;2024-02-21T14:10:40;10.70;99.90
19522;DHT22;9905;52.126;5.596;2024-02-21T14:13:07;10.80;99.90
19522;DHT22;9905;52.126;5.596;2024-02-21T14:15:34;10.80;99.90
19522;DHT22;9905;52.126;5.596;2024-02-21T14:18:04;10.80;99.90
19522;DHT22;9905;52.126;5.596;2024-02-21T14:20:34;10.70;99.90
19522;DHT22;9905;52.126;5.596;2024-02-21T14:23:00;10.70;99.90
19522;DHT22;9905;52.126;5.596;2024-02-21T14:25:27;10.70;99.90
19522;DHT22;9905;52.126;5.596;2024-02-21T14:27:54;10.70;99.90
19522;DHT22;9905;52.126;5.596;2024-02-21T14:30:21;10.70;99.90
19522;DHT22;9905;52.126;5.596;2024-02-21T14:32:48;10.70;99.90
19522;DHT22;9905;52.126;5.596;2024-02-21T14:35:16;10.70;99.90
19522;DHT22;9905;52.126;5.596;2024-02-21T14:37:43;10.70;99.90
19522;DHT22;9905;52.126;5.596;2024-02-21T14:40:11;10.80;99.90
19522;DHT22;9905;52.126;5.596;2024-02-21T14:42:38;10.80;99.90
19522;DHT22;9905;52.126;5.596;2024-02-21T14:45:06;10.80;99.90
19522;DHT22;9905;52.126;5.596;2024-02-21T14:47:33;10.80;99.90
19522;DHT22;9905;52.126;5.596;2024-02-21T14:50:01;10.80;99.90
19522;DHT22;9905;52.126;5.596;2024-02-21T14:52:30;10.80;99.90
19522;DHT22;9905;52.126;5.596;2024-02-21T14:54:58;10.80;99.90
19522;DHT22;9905;52.126;5.596;2024-02-21T14:57:25;10.80;99.90
19522;DHT22;9905;52.126;5.596;2024-02-21T14:59:51;10.70;99.90
19522;DHT22;9905;52.126;5.596;2024-02-21T15:02:21;10.70;99.90
19522;DHT22;9905;52.126;5.596;2024-02-21T15:04:48;10.70;99.90
19522;DHT22;9905;52.126;5.596;2024-02-21T15:07:16;10.70;99.90
19522;DHT22;9905;52.126;5.596;2024-02-21T15:09:45;10.60;99.90
19522;DHT22;9905;52.126;5.596;2024-02-21T15:12:12;10.60;99.90
19522;DHT22;9905;52.126;5.596;2024-02-21T15:14:39;10.50;99.90
19522;DHT22;9905;52.126;5.596;2024-02-21T15:17:06;10.50;99.90
19522;DHT22;9905;52.126;5.596;2024-02-21T15:19:32;10.40;99.90
19522;DHT22;9905;52.126;5.596;2024-02-21T15:22:00;10.30;99.90
19522;DHT22;9905;52.126;5.596;2024-02-21T15:24:26;10.20;99.90
19522;DHT22;9905;52.126;5.596;2024-02-21T15:26:54;10.10;99.90
19522;DHT22;9905;52.126;5.596;2024-02-21T15:29:21;10.10;99.90
19522;DHT22;9905;52.126;5.596;2024-02-21T15:31:49;10.00;99.90
19522;DHT22;9905;52.126;5.596;2024-02-21T15:34:15;9.90;99.90
19522;DHT22;9905;52.126;5.596;2024-02-21T15:36:43;9.90;99.90
19522;DHT22;9905;52.126;5.596;2024-02-21T15:39:09;9.90;99.90
19522;DHT22;9905;52.126;5.596;2024-02-21T15:41:37;9.90;99.90
19522;DHT22;9905;52.126;5.596;2024-02-21T15:44:05;9.90;99.90
19522;DHT22;9905;52.126;5.596;2024-02-21T15:46:32;9.80;99.90
19522;DHT22;9905;52.126;5.596;2024-02-21T15:49:02;9.80;99.90
19522;DHT22;9905;52.126;5.596;2024-02-21T15:51:29;9.70;99.90
19522;DHT22;9905;52.126;5.596;2024-02-21T15:53:56;9.80;99.90
19522;DHT22;9905;52.126;5.596;2024-02-21T15:56:22;9.70;99.90
19522;DHT22;9905;52.126;5.596;2024-02-21T15:58:49;9.70;99.90